sensor_id;sensor_type;location;lat;lon;timestamp;P1;durP1;ratioP1;P2;durP2;ratioP2
74100;SDS011;62462;52.530;21.682;2022-12-18T00:01:14;77.73;;;24.93;;
74100;SDS011;62462;52.530;21.682;2022-12-18T00:03:42;47.83;;;17.60;;
74100;SDS011;62462;52.530;21.682;2022-12-18T00:06:08;43.73;;;16.43;;
74100;SDS011;62462;52.530;21.682;2022-12-18T00:08:34;33.67;;;13.63;;
74100;SDS011;62462;52.530;21.682;2022-12-18T00:11:04;31.80;;;13.37;;
74100;SDS011;62462;52.530;21.682;2022-12-18T00:13:31;34.17;;;13.03;;
74100;SDS011;62462;52.530;21.682;2022-12-18T00:16:01;31.77;;;12.50;;
74100;SDS011;62462;52.530;21.682;2022-12-18T00:18:30;32.00;;;13.63;;
74100;SDS011;62462;52.530;21.682;2022-12-18T00:20:59;31.20;;;12.53;;
74100;SDS011;62462;52.530;21.682;2022-12-18T00:23:27;34.73;;;11.50;;
74100;SDS011;62462;52.530;21.682;2022-12-18T00:25:53;33.30;;;12.73;;
74100;SDS011;62462;52.530;21.682;2022-12-18T00:28:19;33.70;;;13.63;;
74100;SDS011;62462;52.530;21.682;2022-12-18T00:30:44;36.20;;;13.30;;
74100;SDS011;62462;52.530;21.682;2022-12-18T00:33:10;32.23;;;13.60;;
74100;SDS011;62462;52.530;21.682;2022-12-18T00:35:36;36.67;;;14.03;;
74100;SDS011;62462;52.530;21.682;2022-12-18T00:38:01;31.80;;;13.67;;
74100;SDS011;62462;52.530;21.682;2022-12-18T00:40:27;34.30;;;14.40;;
74100;SDS011;62462;52.530;21.682;2022-12-18T00:42:53;38.60;;;14.53;;
74100;SDS011;62462;52.530;21.682;2022-12-18T00:45:22;35.27;;;13.93;;
74100;SDS011;62462;52.530;21.682;2022-12-18T00:47:50;34.13;;;13.73;;
74100;SDS011;62462;52.530;21.682;2022-12-18T00:50:16;33.60;;;13.30;;
74100;SDS011;62462;52.530;21.682;2022-12-18T00:52:42;34.87;;;12.33;;
74100;SDS011;62462;52.530;21.682;2022-12-18T00:55:08;28.20;;;12.93;;
74100;SDS011;62462;52.530;21.682;2022-12-18T00:57:34;31.03;;;11.73;;
74100;SDS011;62462;52.530;21.682;2022-12-18T01:00:00;40.53;;;15.13;;
74100;SDS011;62462;52.530;21.682;2022-12-18T01:02:26;36.03;;;13.57;;
74100;SDS011;62462;52.530;21.682;2022-12-18T01:04:52;34.67;;;13.80;;
74100;SDS011;62462;52.530;21.682;2022-12-18T01:07:18;36.47;;;13.00;;
74100;SDS011;62462;52.530;21.682;2022-12-18T01:09:43;29.53;;;11.70;;
74100;SDS011;62462;52.530;21.682;2022-12-18T01:12:09;30.97;;;12.33;;
74100;SDS011;62462;52.530;21.682;2022-12-18T01:14:36;30.53;;;12.40;;
74100;SDS011;62462;52.530;21.682;2022-12-18T01:17:03;33.23;;;13.43;;
74100;SDS011;62462;52.530;21.682;2022-12-18T01:19:29;33.17;;;12.83;;
74100;SDS011;62462;52.530;21.682;2022-12-18T01:21:55;31.23;;;12.13;;
74100;SDS011;62462;52.530;21.682;2022-12-18T01:24:21;32.30;;;13.53;;
74100;SDS011;62462;52.530;21.682;2022-12-18T01:26:46;36.57;;;13.00;;
74100;SDS011;62462;52.530;21.682;2022-12-18T01:29:12;32.83;;;12.63;;
74100;SDS011;62462;52.530;21.682;2022-12-18T01:31:38;31.50;;;12.83;;
74100;SDS011;62462;52.530;21.682;2022-12-18T01:34:04;33.27;;;13.73;;
74100;SDS011;62462;52.530;21.682;2022-12-18T01:36:32;31.03;;;12.53;;
74100;SDS011;62462;52.530;21.682;2022-12-18T01:38:59;30.27;;;12.37;;
74100;SDS011;62462;52.530;21.682;2022-12-18T01:41:28;28.33;;;11.27;;
74100;SDS011;62462;52.530;21.682;2022-12-18T01:47:41;28.43;;;11.73;;
74100;SDS011;62462;52.530;21.682;2022-12-18T01:52:56;30.67;;;11.07;;
74100;SDS011;62462;52.530;21.682;2022-12-18T01:55:28;37.37;;;14.33;;
74100;SDS011;62462;52.530;21.682;2022-12-18T01:57:57;39.60;;;15.33;;
74100;SDS011;62462;52.530;21.682;2022-12-18T02:00:24;33.23;;;13.60;;
74100;SDS011;62462;52.530;21.682;2022-12-18T02:02:51;29.40;;;11.77;;
74100;SDS011;62462;52.530;21.682;2022-12-18T02:05:19;33.73;;;12.43;;
74100;SDS011;62462;52.530;21.682;2022-12-18T02:10:53;29.37;;;11.67;;
74100;SDS011;62462;52.530;21.682;2022-12-18T02:16:41;25.87;;;9.70;;
74100;SDS011;62462;52.530;21.682;2022-12-18T02:19:39;24.43;;;9.40;;
74100;SDS011;62462;52.530;21.682;2022-12-18T02:27:20;24.10;;;10.63;;
74100;SDS011;62462;52.530;21.682;2022-12-18T02:29:48;24.80;;;9.70;;
74100;SDS011;62462;52.530;21.682;2022-12-18T02:32:26;23.43;;;10.03;;
74100;SDS011;62462;52.530;21.682;2022-12-18T02:34:55;24.73;;;9.80;;
74100;SDS011;62462;52.530;21.682;2022-12-18T02:37:22;21.97;;;9.57;;
74100;SDS011;62462;52.530;21.682;2022-12-18T02:39:51;24.93;;;10.07;;
74100;SDS011;62462;52.530;21.682;2022-12-18T02:42:20;22.33;;;9.70;;
74100;SDS011;62462;52.530;21.682;2022-12-18T02:44:48;20.93;;;9.57;;
74100;SDS011;62462;52.530;21.682;2022-12-18T02:47:19;26.50;;;10.20;;
74100;SDS011;62462;52.530;21.682;2022-12-18T02:52:52;24.53;;;10.03;;
74100;SDS011;62462;52.530;21.682;2022-12-18T02:57:58;26.47;;;9.53;;
74100;SDS011;62462;52.530;21.682;2022-12-18T03:00:36;26.00;;;9.43;;
74100;SDS011;62462;52.530;21.682;2022-12-18T03:03:08;25.03;;;9.67;;
74100;SDS011;62462;52.530;21.682;2022-12-18T03:05:39;27.50;;;10.77;;
74100;SDS011;62462;52.530;21.682;2022-12-18T03:10:42;26.03;;;9.63;;
74100;SDS011;62462;52.530;21.682;2022-12-18T03:13:13;24.77;;;10.53;;
74100;SDS011;62462;52.530;21.682;2022-12-18T03:15:47;26.45;;;10.05;;
74100;SDS011;62462;52.530;21.682;2022-12-18T03:18:20;23.27;;;9.57;;
74100;SDS011;62462;52.530;21.682;2022-12-18T03:20:49;21.48;;;9.63;;
74100;SDS011;62462;52.530;21.682;2022-12-18T03:23:20;22.60;;;9.63;;
74100;SDS011;62462;52.530;21.682;2022-12-18T03:25:50;26.53;;;9.50;;
74100;SDS011;62462;52.530;21.682;2022-12-18T03:28:20;34.33;;;10.87;;
74100;SDS011;62462;52.530;21.682;2022-12-18T03:30:48;25.43;;;10.40;;
74100;SDS011;62462;52.530;21.682;2022-12-18T03:33:21;28.83;;;12.57;;
74100;SDS011;62462;52.530;21.682;2022-12-18T03:35:49;34.77;;;12.50;;
74100;SDS011;62462;52.530;21.682;2022-12-18T03:38:15;30.40;;;10.70;;
74100;SDS011;62462;52.530;21.682;2022-12-18T03:46:04;24.57;;;9.00;;
74100;SDS011;62462;52.530;21.682;2022-12-18T03:48:36;25.97;;;9.53;;
74100;SDS011;62462;52.530;21.682;2022-12-18T03:51:10;23.03;;;9.63;;
74100;SDS011;62462;52.530;21.682;2022-12-18T03:53:51;24.03;;;10.07;;
74100;SDS011;62462;52.530;21.682;2022-12-18T03:56:28;21.27;;;8.60;;
74100;SDS011;62462;52.530;21.682;2022-12-18T03:58:57;25.70;;;9.10;;
74100;SDS011;62462;52.530;21.682;2022-12-18T04:01:28;21.43;;;9.23;;
74100;SDS011;62462;52.530;21.682;2022-12-18T04:04:00;21.47;;;9.70;;
74100;SDS011;62462;52.530;21.682;2022-12-18T04:06:28;24.70;;;10.57;;
74100;SDS011;62462;52.530;21.682;2022-12-18T04:08:54;28.57;;;10.03;;
74100;SDS011;62462;52.530;21.682;2022-12-18T04:11:22;27.87;;;10.20;;
74100;SDS011;62462;52.530;21.682;2022-12-18T04:13:48;26.20;;;10.13;;
74100;SDS011;62462;52.530;21.682;2022-12-18T04:16:14;23.27;;;9.60;;
74100;SDS011;62462;52.530;21.682;2022-12-18T04:18:39;23.47;;;9.40;;
74100;SDS011;62462;52.530;21.682;2022-12-18T04:21:05;24.30;;;9.30;;
74100;SDS011;62462;52.530;21.682;2022-12-18T04:23:31;18.77;;;8.53;;
74100;SDS011;62462;52.530;21.682;2022-12-18T04:25:57;19.83;;;8.37;;
74100;SDS011;62462;52.530;21.682;2022-12-18T04:28:22;19.70;;;8.13;;
74100;SDS011;62462;52.530;21.682;2022-12-18T04:30:48;20.80;;;8.73;;
74100;SDS011;62462;52.530;21.682;2022-12-18T04:33:14;18.70;;;8.33;;
74100;SDS011;62462;52.530;21.682;2022-12-18T04:35:40;22.57;;;8.53;;
74100;SDS011;62462;52.530;21.682;2022-12-18T04:38:06;20.77;;;8.60;;
74100;SDS011;62462;52.530;21.682;2022-12-18T04:40:36;20.70;;;9.00;;
74100;SDS011;62462;52.530;21.682;2022-12-18T04:43:02;21.43;;;9.03;;
74100;SDS011;62462;52.530;21.682;2022-12-18T04:45:29;22.33;;;8.37;;
74100;SDS011;62462;52.530;21.682;2022-12-18T04:47:57;22.20;;;8.63;;
74100;SDS011;62462;52.530;21.682;2022-12-18T04:50:23;23.17;;;9.17;;
74100;SDS011;62462;52.530;21.682;2022-12-18T04:52:49;26.03;;;9.17;;
74100;SDS011;62462;52.530;21.682;2022-12-18T04:55:15;23.07;;;8.77;;
74100;SDS011;62462;52.530;21.682;2022-12-18T04:57:41;19.07;;;8.37;;
74100;SDS011;62462;52.530;21.682;2022-12-18T05:00:06;25.23;;;10.17;;
74100;SDS011;62462;52.530;21.682;2022-12-18T05:02:33;20.23;;;8.47;;
74100;SDS011;62462;52.530;21.682;2022-12-18T05:04:58;19.50;;;8.97;;
74100;SDS011;62462;52.530;21.682;2022-12-18T05:07:24;21.70;;;8.97;;
74100;SDS011;62462;52.530;21.682;2022-12-18T05:09:50;22.97;;;10.13;;
74100;SDS011;62462;52.530;21.682;2022-12-18T05:12:15;24.43;;;10.63;;
74100;SDS011;62462;52.530;21.682;2022-12-18T05:14:41;26.07;;;10.40;;
74100;SDS011;62462;52.530;21.682;2022-12-18T05:17:07;25.40;;;9.23;;
74100;SDS011;62462;52.530;21.682;2022-12-18T05:19:32;22.70;;;8.90;;
74100;SDS011;62462;52.530;21.682;2022-12-18T05:21:58;20.70;;;8.73;;
74100;SDS011;62462;52.530;21.682;2022-12-18T05:24:24;20.53;;;10.07;;
74100;SDS011;62462;52.530;21.682;2022-12-18T05:26:50;24.33;;;9.63;;
74100;SDS011;62462;52.530;21.682;2022-12-18T05:29:16;24.63;;;9.70;;
74100;SDS011;62462;52.530;21.682;2022-12-18T05:31:41;23.47;;;10.03;;
74100;SDS011;62462;52.530;21.682;2022-12-18T05:34:07;25.27;;;9.20;;
74100;SDS011;62462;52.530;21.682;2022-12-18T05:36:33;19.33;;;9.07;;
74100;SDS011;62462;52.530;21.682;2022-12-18T05:38:59;24.27;;;9.07;;
74100;SDS011;62462;52.530;21.682;2022-12-18T05:41:25;25.50;;;9.63;;
74100;SDS011;62462;52.530;21.682;2022-12-18T05:43:51;25.67;;;9.57;;
74100;SDS011;62462;52.530;21.682;2022-12-18T05:46:17;25.27;;;8.83;;
74100;SDS011;62462;52.530;21.682;2022-12-18T05:48:44;25.33;;;8.63;;
74100;SDS011;62462;52.530;21.682;2022-12-18T05:51:11;24.73;;;9.43;;
74100;SDS011;62462;52.530;21.682;2022-12-18T05:53:39;25.13;;;9.53;;
74100;SDS011;62462;52.530;21.682;2022-12-18T05:56:08;24.17;;;9.83;;
74100;SDS011;62462;52.530;21.682;2022-12-18T05:58:35;21.93;;;9.27;;
74100;SDS011;62462;52.530;21.682;2022-12-18T06:01:09;25.73;;;9.47;;
74100;SDS011;62462;52.530;21.682;2022-12-18T06:03:36;22.00;;;9.87;;
74100;SDS011;62462;52.530;21.682;2022-12-18T06:06:02;26.57;;;9.70;;
74100;SDS011;62462;52.530;21.682;2022-12-18T06:08:28;22.93;;;10.17;;
74100;SDS011;62462;52.530;21.682;2022-12-18T06:10:54;22.87;;;8.80;;
74100;SDS011;62462;52.530;21.682;2022-12-18T06:13:20;22.00;;;8.80;;
74100;SDS011;62462;52.530;21.682;2022-12-18T06:15:46;26.27;;;10.00;;
74100;SDS011;62462;52.530;21.682;2022-12-18T06:18:12;24.90;;;10.27;;
74100;SDS011;62462;52.530;21.682;2022-12-18T06:20:37;25.67;;;10.50;;
74100;SDS011;62462;52.530;21.682;2022-12-18T06:23:05;24.93;;;9.87;;
74100;SDS011;62462;52.530;21.682;2022-12-18T06:25:31;25.17;;;10.53;;
74100;SDS011;62462;52.530;21.682;2022-12-18T06:27:58;23.77;;;9.20;;
74100;SDS011;62462;52.530;21.682;2022-12-18T06:30:23;20.97;;;8.57;;
74100;SDS011;62462;52.530;21.682;2022-12-18T06:32:49;24.20;;;9.60;;
74100;SDS011;62462;52.530;21.682;2022-12-18T06:35:15;24.67;;;9.07;;
74100;SDS011;62462;52.530;21.682;2022-12-18T06:37:41;22.03;;;8.80;;
74100;SDS011;62462;52.530;21.682;2022-12-18T06:40:07;22.37;;;8.93;;
74100;SDS011;62462;52.530;21.682;2022-12-18T06:42:33;35.23;;;12.73;;
74100;SDS011;62462;52.530;21.682;2022-12-18T06:44:59;31.37;;;11.40;;
74100;SDS011;62462;52.530;21.682;2022-12-18T06:47:24;28.83;;;10.87;;
74100;SDS011;62462;52.530;21.682;2022-12-18T06:49:50;23.03;;;9.50;;
74100;SDS011;62462;52.530;21.682;2022-12-18T06:52:16;24.30;;;9.57;;
74100;SDS011;62462;52.530;21.682;2022-12-18T06:54:42;29.97;;;10.90;;
74100;SDS011;62462;52.530;21.682;2022-12-18T06:57:07;21.17;;;9.37;;
74100;SDS011;62462;52.530;21.682;2022-12-18T06:59:33;33.77;;;12.57;;
74100;SDS011;62462;52.530;21.682;2022-12-18T07:01:59;42.13;;;17.77;;
74100;SDS011;62462;52.530;21.682;2022-12-18T07:04:30;41.83;;;15.80;;
74100;SDS011;62462;52.530;21.682;2022-12-18T07:06:57;31.97;;;13.53;;
74100;SDS011;62462;52.530;21.682;2022-12-18T07:09:23;37.20;;;14.23;;
74100;SDS011;62462;52.530;21.682;2022-12-18T07:11:49;32.70;;;12.83;;
74100;SDS011;62462;52.530;21.682;2022-12-18T07:14:14;31.87;;;13.57;;
74100;SDS011;62462;52.530;21.682;2022-12-18T07:16:40;25.67;;;10.90;;
74100;SDS011;62462;52.530;21.682;2022-12-18T07:19:06;20.77;;;9.37;;
74100;SDS011;62462;52.530;21.682;2022-12-18T07:21:31;24.23;;;9.57;;
74100;SDS011;62462;52.530;21.682;2022-12-18T07:23:57;21.93;;;9.17;;
74100;SDS011;62462;52.530;21.682;2022-12-18T07:26:23;23.00;;;9.10;;
74100;SDS011;62462;52.530;21.682;2022-12-18T07:28:49;24.90;;;10.20;;
74100;SDS011;62462;52.530;21.682;2022-12-18T07:31:16;26.33;;;9.77;;
74100;SDS011;62462;52.530;21.682;2022-12-18T07:33:43;27.80;;;10.97;;
74100;SDS011;62462;52.530;21.682;2022-12-18T07:36:10;30.37;;;12.00;;
74100;SDS011;62462;52.530;21.682;2022-12-18T07:38:36;28.47;;;11.30;;
74100;SDS011;62462;52.530;21.682;2022-12-18T07:41:09;27.97;;;10.90;;
74100;SDS011;62462;52.530;21.682;2022-12-18T07:46:02;29.57;;;13.57;;
74100;SDS011;62462;52.530;21.682;2022-12-18T07:48:28;24.37;;;10.03;;
74100;SDS011;62462;52.530;21.682;2022-12-18T07:51:04;22.67;;;8.67;;
74100;SDS011;62462;52.530;21.682;2022-12-18T07:53:31;25.57;;;11.77;;
74100;SDS011;62462;52.530;21.682;2022-12-18T07:55:59;24.47;;;10.67;;
74100;SDS011;62462;52.530;21.682;2022-12-18T07:58:26;23.03;;;9.43;;
74100;SDS011;62462;52.530;21.682;2022-12-18T08:00:52;24.67;;;10.10;;
74100;SDS011;62462;52.530;21.682;2022-12-18T08:03:18;24.53;;;9.53;;
74100;SDS011;62462;52.530;21.682;2022-12-18T08:05:44;21.77;;;9.50;;
74100;SDS011;62462;52.530;21.682;2022-12-18T08:08:10;25.97;;;11.73;;
74100;SDS011;62462;52.530;21.682;2022-12-18T08:10:36;23.43;;;9.37;;
74100;SDS011;62462;52.530;21.682;2022-12-18T08:13:03;29.13;;;12.93;;
74100;SDS011;62462;52.530;21.682;2022-12-18T08:15:28;43.73;;;19.07;;
74100;SDS011;62462;52.530;21.682;2022-12-18T08:17:57;28.40;;;13.43;;
74100;SDS011;62462;52.530;21.682;2022-12-18T08:20:23;27.97;;;14.00;;
74100;SDS011;62462;52.530;21.682;2022-12-18T08:22:48;25.60;;;12.90;;
74100;SDS011;62462;52.530;21.682;2022-12-18T08:25:14;29.37;;;13.37;;
74100;SDS011;62462;52.530;21.682;2022-12-18T08:27:40;21.33;;;9.17;;
74100;SDS011;62462;52.530;21.682;2022-12-18T08:30:06;22.50;;;9.57;;
74100;SDS011;62462;52.530;21.682;2022-12-18T08:32:32;22.53;;;10.17;;
74100;SDS011;62462;52.530;21.682;2022-12-18T08:34:58;27.00;;;10.33;;
74100;SDS011;62462;52.530;21.682;2022-12-18T08:37:24;25.53;;;10.97;;
74100;SDS011;62462;52.530;21.682;2022-12-18T08:39:50;26.27;;;11.43;;
74100;SDS011;62462;52.530;21.682;2022-12-18T08:42:15;29.33;;;11.73;;
74100;SDS011;62462;52.530;21.682;2022-12-18T08:45:00;28.20;;;12.10;;
74100;SDS011;62462;52.530;21.682;2022-12-18T08:47:26;26.07;;;10.43;;
74100;SDS011;62462;52.530;21.682;2022-12-18T08:49:52;29.10;;;11.13;;
74100;SDS011;62462;52.530;21.682;2022-12-18T08:52:18;26.33;;;11.63;;
74100;SDS011;62462;52.530;21.682;2022-12-18T08:54:43;26.07;;;12.07;;
74100;SDS011;62462;52.530;21.682;2022-12-18T08:57:09;28.03;;;11.07;;
74100;SDS011;62462;52.530;21.682;2022-12-18T08:59:35;35.50;;;13.73;;
74100;SDS011;62462;52.530;21.682;2022-12-18T09:02:00;26.60;;;10.77;;
74100;SDS011;62462;52.530;21.682;2022-12-18T09:04:26;29.67;;;13.07;;
74100;SDS011;62462;52.530;21.682;2022-12-18T09:06:52;28.77;;;12.47;;
74100;SDS011;62462;52.530;21.682;2022-12-18T09:09:21;34.60;;;13.57;;
74100;SDS011;62462;52.530;21.682;2022-12-18T09:11:47;30.63;;;13.30;;
74100;SDS011;62462;52.530;21.682;2022-12-18T09:14:13;29.03;;;11.37;;
74100;SDS011;62462;52.530;21.682;2022-12-18T09:16:38;27.90;;;13.10;;
74100;SDS011;62462;52.530;21.682;2022-12-18T09:19:04;29.07;;;12.73;;
74100;SDS011;62462;52.530;21.682;2022-12-18T09:21:31;34.90;;;13.83;;
74100;SDS011;62462;52.530;21.682;2022-12-18T09:23:59;29.33;;;12.90;;
74100;SDS011;62462;52.530;21.682;2022-12-18T09:26:25;31.43;;;12.30;;
74100;SDS011;62462;52.530;21.682;2022-12-18T09:28:51;33.27;;;12.07;;
74100;SDS011;62462;52.530;21.682;2022-12-18T09:31:18;30.00;;;12.53;;
74100;SDS011;62462;52.530;21.682;2022-12-18T09:33:46;23.87;;;10.60;;
74100;SDS011;62462;52.530;21.682;2022-12-18T09:36:12;27.93;;;11.10;;
74100;SDS011;62462;52.530;21.682;2022-12-18T09:38:40;26.10;;;10.60;;
74100;SDS011;62462;52.530;21.682;2022-12-18T09:43:47;31.33;;;12.50;;
74100;SDS011;62462;52.530;21.682;2022-12-18T09:46:22;25.40;;;10.87;;
74100;SDS011;62462;52.530;21.682;2022-12-18T09:48:52;37.53;;;14.80;;
74100;SDS011;62462;52.530;21.682;2022-12-18T09:51:27;42.37;;;16.43;;
74100;SDS011;62462;52.530;21.682;2022-12-18T09:53:58;31.13;;;13.47;;
74100;SDS011;62462;52.530;21.682;2022-12-18T09:56:35;33.27;;;12.87;;
74100;SDS011;62462;52.530;21.682;2022-12-18T10:01:34;22.73;;;10.47;;
74100;SDS011;62462;52.530;21.682;2022-12-18T10:03:59;27.30;;;11.50;;
74100;SDS011;62462;52.530;21.682;2022-12-18T10:09:06;31.40;;;14.10;;
74100;SDS011;62462;52.530;21.682;2022-12-18T10:14:40;36.97;;;14.27;;
74100;SDS011;62462;52.530;21.682;2022-12-18T10:19:57;30.83;;;12.97;;
74100;SDS011;62462;52.530;21.682;2022-12-18T10:25:21;31.30;;;13.73;;
74100;SDS011;62462;52.530;21.682;2022-12-18T10:28:09;40.70;;;15.23;;
74100;SDS011;62462;52.530;21.682;2022-12-18T10:30:41;36.47;;;15.13;;
74100;SDS011;62462;52.530;21.682;2022-12-18T10:33:10;35.00;;;13.17;;
74100;SDS011;62462;52.530;21.682;2022-12-18T10:35:40;35.50;;;15.02;;
74100;SDS011;62462;52.530;21.682;2022-12-18T10:45:58;40.03;;;18.52;;
74100;SDS011;62462;52.530;21.682;2022-12-18T10:48:52;42.93;;;17.53;;
74100;SDS011;62462;52.530;21.682;2022-12-18T10:51:20;36.57;;;15.40;;
74100;SDS011;62462;52.530;21.682;2022-12-18T10:54:12;34.17;;;15.63;;
74100;SDS011;62462;52.530;21.682;2022-12-18T10:56:46;37.53;;;15.67;;
74100;SDS011;62462;52.530;21.682;2022-12-18T10:59:16;31.37;;;13.73;;
74100;SDS011;62462;52.530;21.682;2022-12-18T11:04:26;38.95;;;15.57;;
74100;SDS011;62462;52.530;21.682;2022-12-18T11:09:24;48.07;;;18.30;;
74100;SDS011;62462;52.530;21.682;2022-12-18T11:11:53;36.53;;;15.60;;
74100;SDS011;62462;52.530;21.682;2022-12-18T11:14:22;38.07;;;15.80;;
74100;SDS011;62462;52.530;21.682;2022-12-18T11:16:51;39.67;;;15.73;;
74100;SDS011;62462;52.530;21.682;2022-12-18T11:21:57;39.03;;;18.20;;
74100;SDS011;62462;52.530;21.682;2022-12-18T11:26:51;38.60;;;16.93;;
74100;SDS011;62462;52.530;21.682;2022-12-18T11:29:18;44.83;;;18.20;;
74100;SDS011;62462;52.530;21.682;2022-12-18T11:31:48;41.57;;;16.13;;
74100;SDS011;62462;52.530;21.682;2022-12-18T11:36:55;37.80;;;16.03;;
74100;SDS011;62462;52.530;21.682;2022-12-18T11:45:02;42.50;;;17.50;;
74100;SDS011;62462;52.530;21.682;2022-12-18T11:50:14;46.30;;;21.40;;
74100;SDS011;62462;52.530;21.682;2022-12-18T11:52:43;44.67;;;17.70;;
74100;SDS011;62462;52.530;21.682;2022-12-18T11:55:13;40.00;;;16.73;;
74100;SDS011;62462;52.530;21.682;2022-12-18T11:58:23;36.63;;;15.67;;
74100;SDS011;62462;52.530;21.682;2022-12-18T12:06:48;41.60;;;17.87;;
74100;SDS011;62462;52.530;21.682;2022-12-18T12:19:30;44.23;;;16.40;;
74100;SDS011;62462;52.530;21.682;2022-12-18T12:30:08;47.33;;;17.90;;
74100;SDS011;62462;52.530;21.682;2022-12-18T12:36:22;56.75;;;22.15;;
74100;SDS011;62462;52.530;21.682;2022-12-18T12:38:45;47.07;;;18.13;;
74100;SDS011;62462;52.530;21.682;2022-12-18T12:41:23;52.77;;;20.27;;
74100;SDS011;62462;52.530;21.682;2022-12-18T12:44:13;51.23;;;19.60;;
74100;SDS011;62462;52.530;21.682;2022-12-18T12:46:45;48.17;;;18.60;;
74100;SDS011;62462;52.530;21.682;2022-12-18T12:49:16;49.40;;;19.03;;
74100;SDS011;62462;52.530;21.682;2022-12-18T12:52:07;44.07;;;17.80;;
74100;SDS011;62462;52.530;21.682;2022-12-18T12:54:36;48.57;;;19.80;;
74100;SDS011;62462;52.530;21.682;2022-12-18T13:02:23;49.30;;;19.73;;
74100;SDS011;62462;52.530;21.682;2022-12-18T13:07:39;55.20;;;21.00;;
74100;SDS011;62462;52.530;21.682;2022-12-18T13:13:06;54.03;;;20.37;;
74100;SDS011;62462;52.530;21.682;2022-12-18T13:15:39;50.20;;;20.50;;
74100;SDS011;62462;52.530;21.682;2022-12-18T13:18:20;55.97;;;23.00;;
74100;SDS011;62462;52.530;21.682;2022-12-18T13:25:48;65.23;;;24.77;;
74100;SDS011;62462;52.530;21.682;2022-12-18T13:28:16;62.00;;;23.87;;
74100;SDS011;62462;52.530;21.682;2022-12-18T13:31:02;59.60;;;22.37;;
74100;SDS011;62462;52.530;21.682;2022-12-18T13:36:01;56.23;;;22.77;;
74100;SDS011;62462;52.530;21.682;2022-12-18T13:38:37;63.13;;;22.07;;
74100;SDS011;62462;52.530;21.682;2022-12-18T13:41:20;50.67;;;19.47;;
74100;SDS011;62462;52.530;21.682;2022-12-18T13:43:47;55.30;;;20.60;;
74100;SDS011;62462;52.530;21.682;2022-12-18T13:51:44;106.17;;;32.63;;
74100;SDS011;62462;52.530;21.682;2022-12-18T13:57:00;108.63;;;36.77;;
74100;SDS011;62462;52.530;21.682;2022-12-18T13:59:34;90.20;;;30.93;;
74100;SDS011;62462;52.530;21.682;2022-12-18T14:02:05;70.25;;;25.27;;
74100;SDS011;62462;52.530;21.682;2022-12-18T14:04:39;61.67;;;22.20;;
74100;SDS011;62462;52.530;21.682;2022-12-18T14:07:28;64.53;;;22.43;;
74100;SDS011;62462;52.530;21.682;2022-12-18T14:09:53;71.47;;;25.07;;
74100;SDS011;62462;52.530;21.682;2022-12-18T14:12:31;64.87;;;24.53;;
74100;SDS011;62462;52.530;21.682;2022-12-18T14:18:15;71.87;;;25.10;;
74100;SDS011;62462;52.530;21.682;2022-12-18T14:28:55;79.17;;;25.67;;
74100;SDS011;62462;52.530;21.682;2022-12-18T14:31:28;74.88;;;25.35;;
74100;SDS011;62462;52.530;21.682;2022-12-18T14:33:55;76.33;;;26.23;;
74100;SDS011;62462;52.530;21.682;2022-12-18T14:36:22;80.43;;;27.53;;
74100;SDS011;62462;52.530;21.682;2022-12-18T14:38:50;84.30;;;29.77;;
74100;SDS011;62462;52.530;21.682;2022-12-18T14:41:19;73.60;;;26.13;;
74100;SDS011;62462;52.530;21.682;2022-12-18T14:43:52;77.63;;;24.87;;
74100;SDS011;62462;52.530;21.682;2022-12-18T14:49:14;78.17;;;26.13;;
74100;SDS011;62462;52.530;21.682;2022-12-18T14:51:47;86.67;;;26.83;;
74100;SDS011;62462;52.530;21.682;2022-12-18T14:54:18;84.77;;;27.23;;
74100;SDS011;62462;52.530;21.682;2022-12-18T14:56:46;79.03;;;26.40;;
74100;SDS011;62462;52.530;21.682;2022-12-18T14:59:30;75.57;;;26.10;;
74100;SDS011;62462;52.530;21.682;2022-12-18T15:01:57;88.93;;;32.33;;
74100;SDS011;62462;52.530;21.682;2022-12-18T15:04:38;94.97;;;32.93;;
74100;SDS011;62462;52.530;21.682;2022-12-18T15:10:26;97.07;;;32.93;;
74100;SDS011;62462;52.530;21.682;2022-12-18T15:12:46;102.83;;;35.13;;
74100;SDS011;62462;52.530;21.682;2022-12-18T15:18:03;91.07;;;31.83;;
74100;SDS011;62462;52.530;21.682;2022-12-18T15:20:33;87.60;;;31.13;;
74100;SDS011;62462;52.530;21.682;2022-12-18T15:25:58;85.63;;;27.77;;
74100;SDS011;62462;52.530;21.682;2022-12-18T15:28:54;72.40;;;25.50;;
74100;SDS011;62462;52.530;21.682;2022-12-18T15:31:23;76.07;;;25.90;;
74100;SDS011;62462;52.530;21.682;2022-12-18T15:36:18;102.33;;;32.70;;
74100;SDS011;62462;52.530;21.682;2022-12-18T15:38:46;149.33;;;52.67;;
74100;SDS011;62462;52.530;21.682;2022-12-18T15:41:13;134.00;;;47.77;;
74100;SDS011;62462;52.530;21.682;2022-12-18T15:43:40;144.67;;;51.00;;
74100;SDS011;62462;52.530;21.682;2022-12-18T15:46:08;89.37;;;30.20;;
74100;SDS011;62462;52.530;21.682;2022-12-18T15:48:56;195.53;;;64.70;;
74100;SDS011;62462;52.530;21.682;2022-12-18T15:51:23;92.47;;;32.23;;
74100;SDS011;62462;52.530;21.682;2022-12-18T15:53:54;73.30;;;25.53;;
74100;SDS011;62462;52.530;21.682;2022-12-18T15:56:22;83.57;;;29.93;;
74100;SDS011;62462;52.530;21.682;2022-12-18T15:59:10;75.03;;;24.03;;
74100;SDS011;62462;52.530;21.682;2022-12-18T16:01:38;75.10;;;26.53;;
74100;SDS011;62462;52.530;21.682;2022-12-18T16:04:04;86.50;;;27.77;;
74100;SDS011;62462;52.530;21.682;2022-12-18T16:06:31;77.23;;;27.57;;
74100;SDS011;62462;52.530;21.682;2022-12-18T16:08:57;69.33;;;26.03;;
74100;SDS011;62462;52.530;21.682;2022-12-18T16:11:23;87.13;;;31.70;;
74100;SDS011;62462;52.530;21.682;2022-12-18T16:16:37;78.80;;;24.67;;
74100;SDS011;62462;52.530;21.682;2022-12-18T16:19:02;70.00;;;24.33;;
74100;SDS011;62462;52.530;21.682;2022-12-18T16:21:28;79.50;;;28.00;;
74100;SDS011;62462;52.530;21.682;2022-12-18T16:23:54;77.33;;;25.27;;
74100;SDS011;62462;52.530;21.682;2022-12-18T16:26:19;71.23;;;27.70;;
74100;SDS011;62462;52.530;21.682;2022-12-18T16:28:45;87.77;;;27.07;;
74100;SDS011;62462;52.530;21.682;2022-12-18T16:31:11;76.33;;;27.73;;
74100;SDS011;62462;52.530;21.682;2022-12-18T16:33:36;73.77;;;27.80;;
74100;SDS011;62462;52.530;21.682;2022-12-18T16:36:02;81.43;;;27.83;;
74100;SDS011;62462;52.530;21.682;2022-12-18T16:38:28;82.07;;;27.80;;
74100;SDS011;62462;52.530;21.682;2022-12-18T16:40:54;80.13;;;27.90;;
74100;SDS011;62462;52.530;21.682;2022-12-18T16:43:38;95.05;;;30.73;;
74100;SDS011;62462;52.530;21.682;2022-12-18T16:46:03;77.20;;;26.33;;
74100;SDS011;62462;52.530;21.682;2022-12-18T16:48:29;78.33;;;27.90;;
74100;SDS011;62462;52.530;21.682;2022-12-18T16:51:01;72.93;;;23.57;;
74100;SDS011;62462;52.530;21.682;2022-12-18T16:53:28;68.93;;;23.88;;
74100;SDS011;62462;52.530;21.682;2022-12-18T16:55:55;72.60;;;24.97;;
74100;SDS011;62462;52.530;21.682;2022-12-18T16:58:21;72.00;;;23.83;;
74100;SDS011;62462;52.530;21.682;2022-12-18T17:00:47;72.07;;;24.70;;
74100;SDS011;62462;52.530;21.682;2022-12-18T17:03:12;68.47;;;23.33;;